Time;durP1;ratioP1;P1;durP2;ratioP2;P2;SDS_P1;SDS_P2;PMS_P1;PMS_P2;Temp;Humidity;BMP_temperature;BMP_pressure;BME280_temperature;BME280_humidity;BME280_pressure;Samples;Min_cycle;Max_cycle;Signal;HPM_P1;HPM_P2
2023/04/22 00:03:02;;;;;;;4.22;1.20;;;;;;;11.18;41.15;96673.56;6297141;28;20487;-73
2023/04/22 00:06:06;;;;;;;1.48;0.93;;;;;;;11.16;41.16;96666.72;6295634;28;20090;-73
2023/04/22 00:09:10;;;;;;;3.67;1.20;;;;;;;11.15;41.38;96659.75;6295518;28;20049;-73
2023/04/22 00:12:15;;;;;;;2.70;1.70;;;;;;;11.11;41.48;96659.13;6295596;28;20682;-73
2023/04/22 00:15:21;;;;;;;1.30;1.17;;;;;;;11.12;41.47;96652.91;6296456;28;20051;-74
2023/04/22 00:18:26;;;;;;;1.88;1.20;;;;;;;11.07;41.52;96652.41;6296694;28;20055;-73
2023/04/22 00:21:31;;;;;;;1.40;0.90;;;;;;;11.05;41.58;96649.03;6296487;28;20600;-73
2023/04/22 00:24:36;;;;;;;2.15;1.30;;;;;;;11.06;41.44;96645.44;6296548;28;20044;-73
2023/04/22 00:27:44;;;;;;;1.70;0.88;;;;;;;11.05;41.57;96649.03;6296366;28;20409;-73
2023/04/22 00:30:48;;;;;;;1.52;0.95;;;;;;;11.06;41.56;96640.16;6295113;28;20040;-73
2023/04/22 00:33:54;;;;;;;0.90;0.88;;;;;;;11.03;41.39;96648.28;6296093;28;20514;-75
2023/04/22 00:36:59;;;;;;;1.45;0.90;;;;;;;11.03;41.43;96640.38;6295870;28;20046;-74
2023/04/22 00:40:05;;;;;;;1.25;0.98;;;;;;;11.04;41.33;96642.09;6294928;28;20052;-73
2023/04/22 00:43:08;;;;;;;2.08;0.98;;;;;;;11.04;41.09;96639.47;6294855;28;20044;-74
2023/04/22 00:46:15;;;;;;;;;;;;;;;11.02;40.98;96638.72;6296401;28;20041;-74
2023/04/22 00:49:21;;;;;;;2.28;0.90;;;;;;;10.96;41.24;96633.88;6294750;28;19970;-72
2023/04/22 00:52:26;;;;;;;1.67;1.25;;;;;;;11.01;41.26;96637.00;6296242;28;20044;-73
2023/04/22 00:55:31;;;;;;;2.80;1.10;;;;;;;11.05;41.13;96637.66;6295646;28;21148;-73
2023/04/22 00:58:38;;;;;;;1.63;1.08;;;;;;;11.08;41.00;96635.66;6295776;28;20055;-74
2023/04/22 01:01:42;;;;;;;1.58;0.95;;;;;;;11.06;40.82;96629.63;6294673;28;20468;-74
2023/04/22 01:04:48;;;;;;;1.40;0.88;;;;;;;11.02;40.67;96618.50;6277974;28;20109;-73
2023/04/22 01:07:54;;;;;;;1.27;1.00;;;;;;;10.95;40.75;96616.38;6295540;28;20056;-74
2023/04/22 01:11:01;;;;;;;1.73;0.80;;;;;;;11.06;40.18;96618.28;6295356;28;20044;-74
2023/04/22 01:14:06;;;;;;;1.98;0.90;;;;;;;10.89;40.16;96624.72;6295302;28;20422;-73
2023/04/22 01:17:13;;;;;;;3.30;1.23;;;;;;;10.95;39.93;96647.97;6295081;28;20057;-74
2023/04/22 01:20:18;;;;;;;1.80;0.85;;;;;;;10.94;39.82;96619.97;6295156;28;20502;-73
2023/04/22 01:23:24;;;;;;;2.00;0.90;;;;;;;10.94;39.68;96625.25;6295125;28;20056;-73
2023/04/22 01:26:30;;;;;;;1.98;0.60;;;;;;;11.11;39.03;96629.31;6295265;28;20405;-73
2023/04/22 01:29:37;;;;;;;2.17;0.90;;;;;;;10.93;39.26;96628.84;6294033;28;20052;-73
2023/04/22 01:32:43;;;;;;;3.05;1.00;;;;;;;11.06;38.46;96629.63;6294908;28;20521;-73
2023/04/22 01:35:49;;;;;;;2.20;0.90;;;;;;;10.91;38.53;96633.38;6295071;28;20045;-74
2023/04/22 01:38:56;;;;;;;2.22;1.05;;;;;;;10.91;38.43;96630.72;6293589;28;20048;-74
2023/04/22 01:42:03;;;;;;;1.42;1.10;;;;;;;10.78;38.55;96636.00;6293603;28;20047;-73
2023/04/22 01:45:12;;;;;;;1.42;1.00;;;;;;;10.67;39.00;96628.88;6294420;28;20048;-73
2023/04/22 01:48:16;;;;;;;1.10;0.90;;;;;;;10.71;38.98;96624.22;6293066;28;20510;-73
2023/04/22 01:51:25;;;;;;;1.58;0.70;;;;;;;10.69;38.91;96621.69;6294393;28;20089;-72
2023/04/22 01:54:31;;;;;;;1.58;1.10;;;;;;;10.71;38.66;96619.78;6294511;28;20040;-73
2023/04/22 01:57:36;;;;;;;1.92;0.88;;;;;;;10.61;38.91;96623.16;6294475;28;20063;-73
2023/04/22 02:00:42;;;;;;;1.98;1.23;;;;;;;10.59;38.92;96620.66;6294447;28;20082;-74
2023/04/22 02:03:46;;;;;;;2.25;0.85;;;;;;;10.64;38.88;96618.53;6276646;28;20048;-74
2023/04/22 02:06:53;;;;;;;1.27;0.98;;;;;;;10.63;39.03;96614.22;6294164;28;20065;-74
2023/04/22 02:09:57;;;;;;;3.17;0.70;;;;;;;10.48;39.27;96612.66;6293029;28;20044;-74
2023/04/22 02:13:05;;;;;;;3.08;1.13;;;;;;;10.43;39.60;96614.75;6294355;28;20047;-75
2023/04/22 02:16:11;;;;;;;2.10;1.20;;;;;;;10.58;39.45;96611.06;6292476;28;20087;-74
2023/04/22 02:19:16;;;;;;;1.63;1.00;;;;;;;10.60;39.28;96619.69;6293737;28;20417;-73
2023/04/22 02:22:23;;;;;;;1.88;1.25;;;;;;;10.50;39.46;96610.75;6294711;28;20037;-74
2023/04/22 02:25:29;;;;;;;1.42;1.10;;;;;;;10.51;39.56;96601.91;6298896;28;20044;-73
2023/04/22 02:28:34;;;;;;;0.98;0.88;;;;;;;10.36;39.86;96600.31;6299280;28;20045;-72
2023/04/22 02:31:39;;;;;;;2.63;1.00;;;;;;;10.32;40.03;96602.34;6297908;28;20056;-74
2023/04/22 02:34:43;;;;;;;1.08;0.90;;;;;;;10.42;39.95;96602.56;6299062;28;20506;-74
2023/04/22 02:37:48;;;;;;;1.23;1.05;;;;;;;10.51;39.87;96604.56;6281341;28;20045;-73
2023/04/22 02:40:55;;;;;;;1.70;1.17;;;;;;;10.57;39.92;96596.22;6298762;28;20036;-74
2023/04/22 02:43:59;;;;;;;3.22;2.17;;;;;;;10.41;40.14;96588.53;6298933;28;20087;-73
2023/04/22 02:47:05;;;;;;;2.30;1.17;;;;;;;10.52;40.08;96580.75;6298781;28;20040;-74
2023/04/22 02:50:11;;;;;;;4.25;1.13;;;;;;;10.41;40.35;96580.66;6298642;28;20041;-74
2023/04/22 02:53:16;;;;;;;2.10;1.08;;;;;;;10.44;40.33;96584.88;6297151;28;20044;-74
2023/04/22 02:56:21;;;;;;;1.38;0.90;;;;;;;10.55;40.17;96571.81;6297016;28;20056;-74
2023/04/22 02:59:24;;;;;;;;;;;;;;;10.73;39.83;96575.81;6297790;28;20051;-73
2023/04/22 03:02:29;;;;;;;1.25;0.90;;;;;;;10.63;39.98;96579.19;6298364;28;20455;-73
2023/04/22 03:05:33;;;;;;;2.22;1.30;;;;;;;10.46;40.47;96578.56;6296805;28;20090;-74
2023/04/22 03:08:37;;;;;;;1.25;1.00;;;;;;;10.55;40.37;96587.59;6296960;28;20041;-75
2023/04/22 03:11:40;;;;;;;;;;;;;;;10.69;40.12;96584.84;6298402;28;20174;-75
2023/04/22 03:14:44;;;;;;;1.50;1.02;;;;;;;10.45;40.77;96589.19;6297963;28;19943;-74
2023/04/22 03:17:47;;;;;;;;;;;;;;;10.58;40.41;96576.84;6298052;28;20059;-74
2023/04/22 03:20:52;;;;;;;1.88;1.15;;;;;;;10.41;40.95;96585.06;6298060;28;19920;-75
2023/04/22 03:23:56;;;;;;;1.23;0.90;;;;;;;10.39;41.13;96582.56;6297863;28;20044;-75
2023/04/22 03:27:01;;;;;;;;;;;;;;;10.48;41.13;96586.34;6297316;28;20177;-74
2023/04/22 03:30:05;;;;;;;1.45;0.80;;;;;;;10.36;41.44;96584.53;6297840;28;19927;-75
2023/04/22 03:33:11;;;;;;;1.20;0.93;;;;;;;10.26;41.77;96573.78;6279395;28;20461;-74
2023/04/22 03:36:17;;;;;;;1.10;0.80;;;;;;;10.63;41.19;96593.16;6296604;28;20055;-74
2023/04/22 03:39:20;;;;;;;1.13;0.60;;;;;;;10.74;40.89;96588.00;6297446;28;20502;-74
2023/04/22 03:42:22;;;;;;;1.98;1.13;;;;;;;10.75;41.18;96575.69;6297333;28;20033;-74
2023/04/22 03:45:27;;;;;;;1.25;1.10;;;;;;;10.74;41.25;96564.31;6295862;28;20060;-74
2023/04/22 03:48:34;;;;;;;2.75;1.45;;;;;;;10.81;41.26;96579.66;6297269;28;20051;-74
2023/04/22 03:51:38;;;;;;;1.13;0.90;;;;;;;10.72;41.49;96597.78;6297444;28;20519;-73
2023/04/22 03:54:43;;;;;;;3.50;0.90;;;;;;;10.82;41.46;96570.84;6297699;28;20043;-75
2023/04/22 03:57:46;;;;;;;;;;;;;;;10.62;41.76;96561.72;6295928;28;20049;-73
2023/04/22 04:00:52;;;;;;;1.45;1.00;;;;;;;10.67;41.85;96543.78;6297208;28;19927;-75
2023/04/22 04:03:57;;;;;;;2.67;0.93;;;;;;;10.55;42.23;96561.28;6295400;28;20044;-74
2023/04/22 04:07:02;;;;;;;2.03;1.38;;;;;;;10.54;42.03;96570.13;6296741;28;20037;-75
2023/04/22 04:10:06;;;;;;;2.75;1.23;;;;;;;10.60;42.29;96574.97;6297189;28;20036;-74
2023/04/22 04:13:10;;;;;;;1.83;1.00;;;;;;;10.53;42.39;96569.31;6295590;28;20484;-73
2023/04/22 04:16:15;;;;;;;2.22;1.20;;;;;;;10.52;42.20;96574.66;6294893;28;20083;-74
2023/04/22 04:19:21;;;;;;;1.23;1.05;;;;;;;10.55;42.35;96574.44;6295303;28;20044;-74
2023/04/22 04:22:28;;;;;;;3.28;1.30;;;;;;;10.54;42.48;96568.34;6296737;28;20040;-73
2023/04/22 04:25:37;;;;;;;1.80;1.00;;;;;;;10.56;42.74;96563.00;6295170;28;20036;-74
2023/04/22 04:28:41;;;;;;;4.70;1.40;;;;;;;10.40;43.22;96557.09;6295263;28;20422;-74
2023/04/22 04:31:46;;;;;;;3.50;0.95;;;;;;;10.58;43.82;96553.19;6296265;28;20121;-74
2023/04/22 04:34:51;;;;;;;2.22;1.27;;;;;;;10.30;45.51;96565.63;6296392;28;20040;-73
2023/04/22 04:37:58;;;;;;;4.90;1.20;;;;;;;10.17;46.53;96572.63;6296507;28;20044;-74
2023/04/22 04:41:02;;;;;;;1.92;1.25;;;;;;;10.04;50.42;96567.34;6295774;28;20413;-73
2023/04/22 04:44:06;;;;;;;1.98;1.08;;;;;;;9.29;51.97;96564.47;6296007;28;20045;-73
2023/04/22 04:47:11;;;;;;;3.87;1.30;;;;;;;9.17;53.16;96554.72;6293770;28;20190;-74
2023/04/22 04:50:16;;;;;;;2.83;1.65;;;;;;;9.07;54.31;96543.16;6295562;28;20499;-73
2023/04/22 04:53:23;;;;;;;4.00;1.63;;;;;;;9.06;54.95;96538.81;6295718;28;20051;-73
2023/04/22 04:57:12;;;;;;;2.40;1.40;;;;;;;9.15;54.89;96546.13;6293967;28;20131;-74
2023/04/22 05:00:15;;;;;;;2.83;1.33;;;;;;;9.40;54.80;96538.34;6294427;28;20052;-74
2023/04/22 05:03:18;;;;;;;7.10;1.65;;;;;;;9.84;53.86;96524.03;6295445;28;20533;-74
2023/04/22 05:06:23;;;;;;;5.20;1.48;;;;;;;10.17;53.13;96513.97;6295345;28;20051;-74
2023/04/22 05:09:28;;;;;;;4.32;1.83;;;;;;;10.48;52.52;96517.97;6295466;28;20086;-74
2023/04/22 05:12:33;;;;;;;5.63;1.77;;;;;;;10.40;52.57;96520.28;6295288;28;20502;-74
2023/04/22 05:15:38;;;;;;;3.72;2.00;;;;;;;10.41;52.93;96517.53;6295048;28;20040;-75
2023/04/22 05:18:43;;;;;;;10.07;2.08;;;;;;;10.60;52.65;96505.72;6295012;28;20414;-75
2023/04/22 05:21:47;;;;;;;7.13;1.92;;;;;;;10.70;52.54;96504.97;6294842;28;20047;-75
2023/04/22 05:24:51;;;;;;;9.17;2.50;;;;;;;10.90;51.77;96505.31;6293612;28;20037;-75
2023/04/22 05:27:58;;;;;;;14.50;3.22;;;;;;;10.79;51.62;96493.78;6294380;28;20421;-74
2023/04/22 05:31:03;;;;;;;7.15;2.22;;;;;;;10.86;51.73;96490.69;6294712;28;20425;-74
2023/04/22 05:34:08;;;;;;;8.93;2.53;;;;;;;11.01;51.20;96484.31;6293607;28;20036;-74
2023/04/22 05:37:13;;;;;;;9.90;2.90;;;;;;;11.34;50.35;96490.72;6293698;28;20052;-74
2023/04/22 05:40:18;;;;;;;13.95;2.40;;;;;;;11.58;49.80;96488.88;6294881;28;20044;-74
2023/04/22 05:43:25;;;;;;;10.82;3.15;;;;;;;11.84;49.13;96494.00;6294617;28;20059;-74
2023/04/22 05:46:30;;;;;;;12.35;2.55;;;;;;;11.80;48.90;96492.53;6294824;28;20129;-74
2023/04/22 05:49:35;;;;;;;10.32;2.40;;;;;;;11.75;48.89;96486.75;6295021;28;20074;-74
2023/04/22 05:52:40;;;;;;;6.05;1.98;;;;;;;11.54;49.47;96497.13;6293256;28;20052;-75
2023/04/22 05:55:45;;;;;;;11.23;2.38;;;;;;;11.60;48.95;96492.22;6294609;28;20508;-74
2023/04/22 05:58:49;;;;;;;10.10;2.72;;;;;;;11.55;49.14;96491.75;6294319;28;20384;-73
2023/04/22 06:01:54;;;;;;;8.68;2.60;;;;;;;11.56;49.58;96493.44;6295148;28;20044;-74
2023/04/22 06:04:58;;;;;;;8.43;2.28;;;;;;;11.49;49.78;96484.28;6294886;28;20417;-73
2023/04/22 06:08:02;;;;;;;5.80;2.30;;;;;;;11.60;49.81;96481.69;6294503;28;20044;-74
2023/04/22 06:11:07;;;;;;;6.38;2.08;;;;;;;11.37;50.61;96479.94;6294243;28;20032;-73
2023/04/22 06:14:12;;;;;;;12.05;2.95;;;;;;;11.14;51.52;96471.94;6294274;28;20414;-75
2023/04/22 06:17:17;;;;;;;8.68;1.90;;;;;;;11.01;52.33;96473.78;6294193;28;20056;-73
2023/04/22 06:20:21;;;;;;;6.53;2.28;;;;;;;10.65;54.30;96462.34;6294442;28;20047;-74
2023/04/22 06:23:25;;;;;;;10.50;2.78;;;;;;;10.16;56.42;96473.66;6293721;28;20102;-75
2023/04/22 06:26:30;;;;;;;7.82;2.47;;;;;;;10.10;56.51;96467.03;6293959;28;20129;-72
2023/04/22 06:29:33;;;;;;;10.50;2.20;;;;;;;9.89;57.02;96464.13;6294152;28;20040;-74
2023/04/22 06:32:39;;;;;;;9.05;2.17;;;;;;;10.17;56.41;96462.22;6292595;28;20044;-76
2023/04/22 06:35:44;;;;;;;8.15;2.30;;;;;;;10.43;55.29;96462.19;6294081;28;20045;-73
2023/04/22 06:38:49;;;;;;;9.30;2.53;;;;;;;10.53;54.57;96463.22;6294203;28;20036;-74
2023/04/22 06:41:54;;;;;;;8.80;2.45;;;;;;;10.71;53.77;96466.34;6293979;28;20045;-74
2023/04/22 06:44:58;;;;;;;7.78;2.10;;;;;;;10.65;53.83;96472.88;6292472;28;20135;-75
2023/04/22 06:48:03;;;;;;;4.22;2.10;;;;;;;10.82;53.78;96468.19;6293816;28;20369;-74
2023/04/22 06:51:08;;;;;;;4.13;2.00;;;;;;;11.20;52.67;96463.59;6293802;28;20040;-75
2023/04/22 06:54:13;;;;;;;4.47;1.90;;;;;;;11.37;52.53;96464.13;6293604;28;20045;-74
2023/04/22 06:57:18;;;;;;;4.22;1.88;;;;;;;11.64;51.95;96456.81;6294059;28;20052;-75
2023/04/22 07:00:21;;;;;;;6.03;2.08;;;;;;;12.13;50.35;96437.22;6292547;28;20044;-74
2023/04/22 07:03:26;;;;;;;5.10;2.20;;;;;;;12.84;48.16;96426.34;6293889;28;20083;-75
2023/04/22 07:06:30;;;;;;;6.90;2.63;;;;;;;13.80;46.29;96420.16;6291765;28;20469;-74
2023/04/22 07:09:34;;;;;;;6.78;1.45;;;;;;;14.99;43.33;96414.19;6295486;28;20056;-75
2023/04/22 07:12:38;;;;;;;7.13;2.22;;;;;;;15.06;42.29;96414.50;6298290;28;20044;-74
2023/04/22 07:15:45;;;;;;;6.53;2.28;;;;;;;14.95;42.36;96401.38;6297771;28;20097;-75
2023/04/22 07:18:49;;;;;;;3.90;1.88;;;;;;;14.78;42.89;96403.72;6297672;28;20036;-73
2023/04/22 07:21:54;;;;;;;4.72;2.00;;;;;;;15.04;42.62;96403.19;6297889;28;20584;-74
2023/04/22 07:24:59;;;;;;;4.40;1.75;;;;;;;15.45;41.50;96398.56;6297825;28;20051;-74
2023/04/22 07:28:04;;;;;;;2.72;1.65;;;;;;;15.67;39.56;96394.75;6296362;28;20530;-74
2023/04/22 07:31:08;;;;;;;4.15;1.25;;;;;;;15.34;39.29;96401.34;6297735;28;20044;-75
2023/04/22 07:34:13;;;;;;;5.03;1.13;;;;;;;15.01;39.31;96400.81;6297462;28;20098;-75
2023/04/22 07:37:18;;;;;;;3.40;1.50;;;;;;;14.45;40.00;96382.84;6296085;28;20441;-74
2023/04/22 07:40:23;;;;;;;2.03;1.13;;;;;;;13.93;41.68;96352.03;6297830;28;20051;-75
2023/04/22 07:43:27;;;;;;;4.03;1.63;;;;;;;13.90;41.28;96352.28;6296234;28;20036;-74
2023/04/22 07:46:32;;;;;;;4.45;1.30;;;;;;;13.92;40.78;96355.63;6297620;28;20150;-74
2023/04/22 07:49:36;;;;;;;3.33;1.52;;;;;;;14.19;40.35;96340.97;6297600;28;20037;-74
2023/04/22 07:52:41;;;;;;;5.05;1.35;;;;;;;14.59;39.49;96337.47;6297360;28;20059;-74
2023/04/22 07:55:45;;;;;;;2.60;1.30;;;;;;;14.71;39.01;96320.47;6297069;28;20044;-73
2023/04/22 07:58:50;;;;;;;4.47;1.25;;;;;;;14.55;39.25;96328.13;6296858;28;20045;-74
2023/04/22 08:01:55;;;;;;;3.85;1.38;;;;;;;14.16;39.67;96320.09;6297037;28;20036;-74
2023/04/22 08:04:59;;;;;;;4.25;1.73;;;;;;;13.93;40.33;96340.63;6295631;28;20044;-75
2023/04/22 08:08:04;;;;;;;2.50;1.08;;;;;;;13.79;39.95;96331.22;6296677;28;20054;-74
2023/04/22 08:11:10;;;;;;;2.17;1.10;;;;;;;13.96;38.47;96331.59;6296734;28;20422;-77
2023/04/22 08:14:14;;;;;;;1.88;1.02;;;;;;;13.93;37.89;96345.91;6296806;28;20051;-74
2023/04/22 08:17:20;;;;;;;2.47;1.00;;;;;;;13.45;39.76;96365.00;6296865;28;20053;-73
2023/04/22 08:20:25;;;;;;;2.08;1.10;;;;;;;12.66;41.74;96351.28;6295344;28;20170;-73
2023/04/22 08:23:30;;;;;;;2.20;1.05;;;;;;;12.47;42.63;96344.84;6296530;28;20424;-75
2023/04/22 08:26:37;;;;;;;2.10;0.80;;;;;;;12.49;41.55;96345.59;6296369;28;20170;-74
2023/04/22 08:29:42;;;;;;;0.90;0.90;;;;;;;12.53;42.90;96325.88;6296526;28;20051;-76
2023/04/22 08:32:46;;;;;;;2.67;1.70;;;;;;;12.00;45.22;96341.59;6296506;28;20037;-75
2023/04/22 08:35:52;;;;;;;4.47;1.77;;;;;;;11.39;48.73;96335.78;6296091;28;20516;-73
2023/04/22 08:38:56;;;;;;;3.22;1.60;;;;;;;11.08;48.90;96316.22;6296534;28;20071;-73
2023/04/22 08:42:01;;;;;;;3.08;1.77;;;;;;;11.00;49.74;96311.53;6295936;28;20050;-73
2023/04/22 08:45:08;;;;;;;3.67;1.90;;;;;;;10.95;49.79;96311.03;6295996;28;20040;-73
2023/04/22 08:48:14;;;;;;;4.03;1.30;;;;;;;11.13;49.00;96307.03;6295813;28;20041;-73
2023/04/22 08:51:18;;;;;;;2.92;1.40;;;;;;;11.32;49.14;96318.75;6295555;28;20452;-74
2023/04/22 08:54:24;;;;;;;3.15;1.60;;;;;;;11.36;49.71;96314.97;6295446;28;20414;-74
2023/04/22 08:57:31;;;;;;;5.88;2.20;;;;;;;11.26;50.60;96282.38;6295937;28;20045;-75
2023/04/22 09:00:41;;;;;;;3.50;2.03;;;;;;;10.99;52.64;96275.63;6295332;28;20506;-75
2023/04/22 09:03:48;;;;;;;4.57;1.65;;;;;;;10.57;54.05;96275.28;6295232;28;20056;-75
2023/04/22 09:06:56;;;;;;;4.00;1.92;;;;;;;10.26;54.43;96229.34;6295674;28;20067;-74
2023/04/22 09:10:02;;;;;;;5.25;2.13;;;;;;;10.25;54.35;96217.16;6294375;28;20044;-73
2023/04/22 09:13:06;;;;;;;4.95;1.50;;;;;;;10.26;53.98;96242.47;6294775;28;20056;-75
2023/04/22 09:16:10;;;;;;;3.67;2.13;;;;;;;10.90;51.80;96213.16;6295146;28;20052;-74
2023/04/22 09:19:22;;;;;;;6.10;2.25;;;;;;;11.43;50.39;96201.06;6295095;28;20052;-75
2023/04/22 09:22:26;;;;;;;5.57;2.17;;;;;;;11.95;49.45;96185.56;6294631;28;20040;-75
2023/04/22 09:25:36;;;;;;;4.13;1.92;;;;;;;12.62;47.94;96178.31;6295358;28;20044;-73
2023/04/22 09:28:47;;;;;;;3.42;1.63;;;;;;;13.17;46.84;96173.59;6294738;28;20044;-74
2023/04/22 09:31:49;;;;;;;6.78;1.92;;;;;;;13.51;45.81;96174.19;6294203;28;20044;-74
2023/04/22 09:34:52;;;;;;;4.65;2.05;;;;;;;13.47;45.55;96165.69;6294590;28;20536;-74
2023/04/22 09:37:57;;;;;;;3.55;1.50;;;;;;;13.36;45.64;96157.00;6294649;28;20147;-74
2023/04/22 09:40:58;;;;;;;2.70;1.27;;;;;;;13.36;45.63;96152.59;6294323;28;20133;-74
2023/04/22 09:44:04;;;;;;;4.97;1.95;;;;;;;13.34;45.19;96141.31;6294762;28;20049;-74
2023/04/22 09:47:10;;;;;;;5.72;1.83;;;;;;;13.32;45.45;96140.59;6294462;28;20051;-74
2023/04/22 09:50:12;;;;;;;5.95;1.80;;;;;;;13.27;45.67;96141.97;6294434;28;20105;-74
2023/04/22 09:53:20;;;;;;;4.63;1.70;;;;;;;13.29;45.49;96119.72;6294579;28;20082;-73
2023/04/22 09:56:39;;;;;;;2.50;1.38;;;;;;;13.24;45.00;96121.91;6294322;28;20491;-75
2023/04/22 09:59:41;;;;;;;3.00;1.40;;;;;;;12.89;45.37;96117.88;6293389;28;20629;-75
2023/04/22 10:02:47;;;;;;;2.90;1.13;;;;;;;12.70;45.55;96112.50;6294580;28;20040;-74
2023/04/22 10:05:54;;;;;;;7.32;2.20;;;;;;;12.92;43.09;96114.16;6294728;28;20045;-74
2023/04/22 10:09:01;;;;;;;3.03;1.67;;;;;;;13.02;36.79;96110.59;6294330;28;20470;-74
2023/04/22 10:12:06;;;;;;;7.47;1.70;;;;;;;13.08;35.54;96118.91;6294190;28;20044;-74
2023/04/22 10:15:11;;;;;;;7.18;1.80;;;;;;;12.71;35.97;96088.63;6294380;28;20043;-76
2023/04/22 10:18:17;;;;;;;4.93;1.70;;;;;;;12.36;36.47;96062.59;6293609;28;20071;-76
2023/04/22 10:21:20;;;;;;;8.13;1.90;;;;;;;11.97;37.46;96080.78;6293840;28;20051;-74
2023/04/22 10:24:27;;;;;;;7.97;1.83;;;;;;;12.10;37.82;96065.63;6293251;28;20040;-75
2023/04/22 10:27:32;;;;;;;4.97;2.20;;;;;;;11.86;39.51;96054.50;6293900;28;20521;-75
2023/04/22 10:30:38;;;;;;;6.60;2.58;;;;;;;11.54;39.81;96044.78;6294085;28;20494;-75
2023/04/22 10:33:41;;;;;;;;;;;;;;;12.20;35.97;96023.53;6294029;28;20041;-74
2023/04/22 10:37:08;;;;;;;4.32;1.63;;;;;;;12.30;36.14;96019.13;6294301;28;19920;-74
2023/04/22 10:40:16;;;;;;;3.72;1.50;;;;;;;12.20;36.49;95991.88;6293317;28;20056;-74
2023/04/22 10:43:38;;;;;;;2.33;1.40;;;;;;;12.13;37.04;95993.34;6293904;28;20135;-74
2023/04/22 10:46:49;;;;;;;4.15;1.63;;;;;;;12.23;36.82;95977.56;6298556;28;20095;-75
2023/04/22 10:50:07;;;;;;;4.47;2.00;;;;;;;12.36;36.26;95952.63;6298354;28;20540;-75
2023/04/22 10:53:34;;;;;;;5.07;2.05;;;;;;;12.61;35.80;95949.69;6298396;28;20041;-74
2023/04/22 10:57:07;;;;;;;4.70;1.73;;;;;;;12.76;35.58;95919.28;6298254;28;20433;-74
2023/04/22 11:00:28;;;;;;;7.20;2.47;;;;;;;12.90;34.92;95929.44;6292495;28;20131;-73
2023/04/22 11:03:31;;;;;;;3.60;1.60;;;;;;;12.90;34.65;95923.31;6298866;28;20048;-74
2023/04/22 11:06:33;;;;;;;2.10;1.70;;;;;;;12.90;34.42;95924.16;6297904;28;20044;-75
2023/04/22 11:09:43;;;;;;;5.13;1.95;;;;;;;13.01;34.56;95926.69;6297927;28;20056;-74
2023/04/22 11:12:48;;;;;;;3.17;1.40;;;;;;;13.28;34.66;95938.41;6298646;28;20059;-75
2023/04/22 11:15:53;;;;;;;3.67;1.77;;;;;;;13.27;34.83;95934.09;6297646;28;20052;-75
2023/04/22 11:19:01;;;;;;;1.63;1.00;;;;;;;13.32;35.13;95939.78;6298085;28;20041;-75
2023/04/22 11:22:03;;;;;;;2.30;1.70;;;;;;;13.16;35.28;95913.06;6298040;28;20048;-75
2023/04/22 11:25:09;;;;;;;2.78;1.27;;;;;;;13.35;34.38;95928.13;6298043;28;20044;-75
2023/04/22 11:28:13;;;;;;;1.98;1.40;;;;;;;13.24;34.42;95923.75;6297770;28;20048;-73
2023/04/22 11:31:17;;;;;;;2.25;1.35;;;;;;;13.18;34.63;95942.81;6298011;28;20052;-73
2023/04/22 11:34:21;;;;;;;2.47;1.00;;;;;;;13.24;34.27;95995.09;6297312;28;20070;-75
2023/04/22 11:37:28;;;;;;;4.00;2.00;;;;;;;13.28;33.04;95970.13;6297467;28;20421;-75
2023/04/22 11:40:33;;;;;;;2.72;1.38;;;;;;;13.24;33.74;95989.81;6297658;28;20048;-74
2023/04/22 11:43:45;;;;;;;4.10;1.60;;;;;;;12.78;35.75;96007.09;6297128;28;20056;-75
2023/04/22 11:46:49;;;;;;;3.22;1.90;;;;;;;12.34;38.59;96001.22;6295458;28;20048;-74
2023/04/22 11:50:03;;;;;;;3.40;1.92;;;;;;;12.02;40.44;96015.34;6296667;28;20195;-75
2023/04/22 11:53:18;;;;;;;4.15;1.55;;;;;;;11.16;42.76;95982.91;6297276;28;20131;-75
2023/04/22 11:56:24;;;;;;;3.38;1.58;;;;;;;11.08;43.08;95989.75;6296963;28;20048;-75
2023/04/22 11:59:29;;;;;;;3.65;2.00;;;;;;;11.12;42.65;95980.63;6296653;28;20053;-74
2023/04/22 12:02:35;;;;;;;5.05;2.28;;;;;;;11.31;42.10;95969.44;6297295;28;20044;-74
2023/04/22 12:05:41;;;;;;;2.40;1.88;;;;;;;11.56;40.71;95990.16;6296407;28;20573;-75
2023/04/22 12:08:43;;;;;;;6.28;2.22;;;;;;;11.62;40.59;96000.19;6296770;28;20426;-75
2023/04/22 12:11:50;;;;;;;4.75;2.08;;;;;;;11.59;41.10;95991.72;6296931;28;20044;-76
2023/04/22 12:14:57;;;;;;;2.42;2.03;;;;;;;11.50;41.79;95980.16;6296776;28;20048;-75
2023/04/22 12:18:01;;;;;;;2.95;2.05;;;;;;;11.33;42.74;95984.16;6293996;28;20051;-74
2023/04/22 12:21:13;;;;;;;8.38;2.10;;;;;;;10.91;42.89;95967.44;6296440;28;20048;-75
2023/04/22 12:24:21;;;;;;;3.15;1.40;;;;;;;11.02;41.39;95986.66;6296019;28;20048;-74
2023/04/22 12:27:26;;;;;;;5.60;2.15;;;;;;;10.89;42.54;95969.34;6296492;28;20152;-74
2023/04/22 12:30:30;;;;;;;5.40;2.28;;;;;;;10.62;46.04;95960.09;6296051;28;20051;-75
2023/04/22 12:33:35;;;;;;;4.45;1.83;;;;;;;10.12;45.79;95941.19;6295269;28;20052;-75
2023/04/22 12:36:41;;;;;;;2.08;1.73;;;;;;;10.26;45.21;95922.53;6296333;28;20044;-75
2023/04/22 12:39:46;;;;;;;2.92;1.80;;;;;;;10.59;44.02;95923.50;6295326;28;20045;-75
2023/04/22 12:42:50;;;;;;;3.78;2.55;;;;;;;10.72;43.59;95911.00;6295392;28;20569;-75
2023/04/22 12:45:59;;;;;;;4.88;2.22;;;;;;;10.78;43.04;95900.00;6294783;28;20044;-74
2023/04/22 12:49:05;;;;;;;4.97;2.50;;;;;;;10.99;42.35;95880.78;6295966;28;20048;-74
2023/04/22 12:52:09;;;;;;;4.30;2.25;;;;;;;10.95;42.32;95879.34;6295608;28;20391;-74
2023/04/22 12:55:13;;;;;;;8.95;4.45;;;;;;;11.14;41.64;95884.78;6295471;28;20206;-74
2023/04/22 12:58:14;;;;;;;7.45;3.67;;;;;;;11.34;40.68;95879.66;6295078;28;20048;-74
2023/04/22 13:01:18;;;;;;;6.10;2.58;;;;;;;11.28;40.55;95888.06;6295381;28;20071;-74
2023/04/22 13:04:25;;;;;;;6.78;3.30;;;;;;;11.33;40.23;95883.25;6295604;28;20044;-75
2023/04/22 13:07:28;;;;;;;8.80;3.05;;;;;;;11.58;39.28;95877.59;6294688;28;20036;-75
2023/04/22 13:10:34;;;;;;;8.02;2.85;;;;;;;11.64;39.13;95870.97;6294979;28;20045;-76
2023/04/22 13:13:36;;;;;;;6.43;2.75;;;;;;;11.71;39.11;95866.00;6294917;28;20068;-74
2023/04/22 13:16:38;;;;;;;4.07;2.20;;;;;;;11.86;38.66;95856.78;6294448;28;20395;-75
2023/04/22 13:19:39;;;;;;;4.95;2.40;;;;;;;11.90;38.00;95843.22;6294455;28;20060;-74
2023/04/22 13:22:43;;;;;;;5.72;1.95;;;;;;;11.81;38.23;95845.81;6293086;28;20052;-74
2023/04/22 13:25:48;;;;;;;4.90;1.80;;;;;;;11.77;38.39;95833.84;6294500;28;20068;-75
2023/04/22 13:28:50;;;;;;;;;;;;;;;12.16;37.08;95834.03;6294312;28;20513;-75
2023/04/22 13:31:51;;;;;;;5.53;1.70;;;;;;;12.10;36.68;95830.13;6294767;28;20392;-74
2023/04/22 13:34:53;;;;;;;2.78;1.73;;;;;;;12.11;36.61;95819.41;6309610;28;20147;-74
2023/04/22 13:37:57;;;;;;;5.93;1.77;;;;;;;12.04;36.71;95815.66;6294547;28;20067;-74
2023/04/22 13:41:01;;;;;;;7.60;2.20;;;;;;;12.20;36.25;95801.13;6293535;28;20055;-74
2023/04/22 13:44:05;;;;;;;5.88;2.10;;;;;;;12.24;35.99;95806.00;6293904;28;20045;-75
2023/04/22 13:47:10;;;;;;;3.58;1.77;;;;;;;12.35;35.69;95794.50;6293619;28;20048;-75
2023/04/22 13:50:14;;;;;;;3.65;1.40;;;;;;;12.37;35.60;95795.22;6294907;28;20044;-74
2023/04/22 13:53:21;;;;;;;3.08;1.40;;;;;;;12.40;35.48;95792.28;6294551;28;20049;-74
2023/04/22 13:56:28;;;;;;;7.82;1.92;;;;;;;12.34;35.36;95769.06;6310586;28;20421;-75
2023/04/22 13:59:34;;;;;;;3.90;1.27;;;;;;;12.50;34.98;95779.94;6294354;28;20313;-75
2023/04/22 14:02:44;;;;;;;7.13;1.85;;;;;;;12.46;34.77;95778.56;6294427;28;20044;-75
2023/04/22 14:05:48;;;;;;;5.10;1.60;;;;;;;12.48;34.83;95768.69;6294516;28;20040;-75
2023/04/22 14:08:54;;;;;;;4.00;1.60;;;;;;;12.68;33.98;95779.22;6294269;28;20045;-74
2023/04/22 14:11:59;;;;;;;2.35;1.58;;;;;;;12.51;34.38;95768.41;6293763;28;20098;-75
2023/04/22 14:15:03;;;;;;;4.53;1.50;;;;;;;12.35;34.54;95762.84;6294599;28;20429;-75
2023/04/22 14:18:09;;;;;;;5.05;1.60;;;;;;;12.25;34.83;95759.34;6296398;28;20052;-75
2023/04/22 14:21:14;;;;;;;3.90;1.60;;;;;;;12.37;34.67;95755.63;6299137;28;20053;-75
2023/04/22 14:24:22;;;;;;;3.10;1.33;;;;;;;12.31;34.91;95754.38;6299172;28;20049;-74
2023/04/22 14:27:26;;;;;;;1.73;1.60;;;;;;;12.26;35.32;95750.50;6299169;28;20051;-74
2023/04/22 14:30:29;;;;;;;5.70;2.30;;;;;;;12.42;34.96;95742.84;6299587;28;20048;-76
2023/04/22 14:33:35;;;;;;;8.68;4.28;;;;;;;12.42;34.87;95732.28;6299182;28;20418;-74
2023/04/22 14:36:38;;;;;;;4.15;2.30;;;;;;;12.39;35.12;95740.50;6298934;28;20090;-75